createdAt,value
2023-01-10T00:00:05.617Z,2.00
2023-01-10T00:02:32.014Z,2.30
2023-01-10T00:04:58.346Z,2.00
2023-01-10T00:07:24.719Z,2.07
2023-01-10T00:09:51.087Z,1.90
2023-01-10T00:12:17.459Z,1.87
2023-01-10T00:14:43.822Z,1.97
2023-01-10T00:17:10.189Z,2.03
2023-01-10T00:19:36.535Z,1.80
2023-01-10T00:22:02.929Z,2.10
2023-01-10T00:24:29.298Z,1.90
2023-01-10T00:26:55.696Z,1.80
2023-01-10T00:29:22.080Z,2.10
2023-01-10T00:31:48.454Z,2.17
2023-01-10T00:34:14.801Z,2.03
2023-01-10T00:36:41.198Z,2.20
2023-01-10T00:39:07.530Z,2.13
2023-01-10T00:41:33.926Z,1.93
2023-01-10T00:44:00.276Z,2.00
2023-01-10T00:46:26.703Z,1.70
2023-01-10T00:48:53.024Z,2.10
2023-01-10T00:51:19.388Z,1.73
2023-01-10T00:53:45.723Z,1.77
2023-01-10T00:56:12.122Z,2.00
2023-01-10T00:58:38.467Z,1.80
2023-01-10T01:01:04.911Z,2.23
2023-01-10T01:03:31.191Z,2.00
2023-01-10T01:05:57.579Z,2.03
2023-01-10T01:08:24.009Z,1.90
2023-01-10T01:10:50.386Z,1.87
2023-01-10T01:13:16.728Z,2.10
2023-01-10T01:15:43.163Z,1.77
2023-01-10T01:18:09.472Z,2.13
2023-01-10T01:20:35.909Z,2.00
2023-01-10T01:23:02.239Z,2.00
2023-01-10T01:25:28.607Z,2.03
2023-01-10T01:27:54.959Z,1.93
2023-01-10T01:30:21.351Z,2.10
2023-01-10T01:32:47.673Z,2.07
2023-01-10T01:35:14.067Z,1.80
2023-01-10T01:37:40.430Z,1.70
2023-01-10T01:40:06.814Z,1.93
2023-01-10T01:42:33.158Z,1.77
2023-01-10T01:44:59.551Z,1.87
2023-01-10T01:47:25.927Z,1.80
2023-01-10T01:49:52.330Z,2.00
2023-01-10T01:52:18.675Z,1.80
2023-01-10T01:54:45.094Z,1.80
2023-01-10T01:57:11.441Z,1.70
2023-01-10T01:59:37.856Z,1.60
2023-01-10T02:02:04.301Z,2.07
2023-01-10T02:04:30.595Z,1.87
2023-01-10T02:06:56.928Z,1.90
2023-01-10T02:09:23.314Z,1.70
2023-01-10T02:11:49.665Z,1.73
2023-01-10T02:14:16.049Z,1.90
2023-01-10T02:16:42.401Z,2.00
2023-01-10T02:19:08.776Z,1.80
2023-01-10T02:21:35.113Z,1.70
2023-01-10T02:24:01.506Z,1.70
2023-01-10T02:26:27.850Z,1.83
2023-01-10T02:28:54.239Z,2.00
2023-01-10T02:31:20.639Z,1.93
2023-01-10T02:33:46.969Z,1.87
2023-01-10T02:36:13.319Z,1.80
2023-01-10T02:38:39.707Z,1.70
2023-01-10T02:41:06.077Z,1.80
2023-01-10T02:43:32.441Z,1.80
2023-01-10T02:45:58.790Z,1.60
2023-01-10T02:48:25.207Z,1.50
2023-01-10T02:50:51.555Z,1.90
2023-01-10T02:53:17.938Z,1.67
2023-01-10T02:55:44.310Z,1.87
2023-01-10T02:58:10.704Z,1.67
2023-01-10T03:00:37.046Z,1.70
2023-01-10T03:03:03.438Z,2.00
2023-01-10T03:05:29.773Z,1.83
2023-01-10T03:07:56.212Z,1.90
2023-01-10T03:10:22.575Z,1.70
2023-01-10T03:12:51.145Z,1.70
2023-01-10T03:15:17.486Z,1.90
2023-01-10T03:17:43.872Z,1.87
2023-01-10T03:20:10.224Z,1.90
2023-01-10T03:22:36.637Z,1.90
2023-01-10T03:25:02.968Z,1.80
2023-01-10T03:27:29.391Z,1.73
2023-01-10T03:29:55.748Z,1.80
2023-01-10T03:32:22.167Z,1.73
2023-01-10T03:34:48.497Z,1.93
2023-01-10T03:37:14.879Z,1.87
2023-01-10T03:39:41.215Z,2.00
2023-01-10T03:42:07.601Z,1.73
2023-01-10T03:44:33.949Z,1.70
2023-01-10T03:47:00.334Z,1.70
2023-01-10T03:49:26.696Z,1.90
2023-01-10T03:51:53.071Z,1.80
2023-01-10T03:54:19.441Z,1.60
2023-01-10T03:56:45.829Z,1.63
2023-01-10T03:59:15.263Z,1.80
2023-01-10T04:01:41.705Z,1.70
2023-01-10T04:04:08.003Z,1.67
2023-01-10T04:06:36.438Z,1.60
2023-01-10T04:09:00.772Z,1.90
2023-01-10T04:11:27.155Z,1.50
2023-01-10T04:13:53.501Z,1.80
2023-01-10T04:16:19.947Z,1.80
2023-01-10T04:18:46.243Z,1.77
2023-01-10T04:21:12.640Z,1.70
2023-01-10T04:23:38.984Z,1.80
2023-01-10T04:26:05.379Z,1.97
2023-01-10T04:28:31.730Z,1.83
2023-01-10T04:30:58.120Z,1.87
2023-01-10T04:33:24.458Z,1.90
2023-01-10T04:35:50.844Z,1.83
2023-01-10T04:38:17.183Z,1.80
2023-01-10T04:40:43.580Z,1.67
2023-01-10T04:43:09.923Z,1.87
2023-01-10T04:45:36.460Z,1.70
2023-01-10T04:48:02.670Z,1.70
2023-01-10T04:50:29.065Z,1.80
2023-01-10T04:52:55.392Z,2.10
2023-01-10T04:55:21.772Z,1.90
2023-01-10T04:57:48.118Z,2.00
2023-01-10T05:00:14.500Z,2.00
2023-01-10T05:02:40.965Z,2.20
2023-01-10T05:05:08.575Z,2.17
2023-01-10T05:07:33.586Z,1.90
2023-01-10T05:09:59.972Z,2.07
2023-01-10T05:12:26.319Z,2.10
2023-01-10T05:14:52.720Z,2.00
2023-01-10T05:17:19.070Z,1.93
2023-01-10T05:19:45.488Z,2.30
2023-01-10T05:22:11.796Z,2.20
2023-01-10T05:24:38.197Z,2.40
2023-01-10T05:27:04.546Z,2.40
2023-01-10T05:29:30.925Z,2.30
2023-01-10T05:31:57.365Z,1.90
2023-01-10T05:34:23.731Z,2.00
2023-01-10T05:36:50.065Z,2.00
2023-01-10T05:39:16.456Z,2.00
2023-01-10T05:41:42.806Z,2.10
2023-01-10T05:44:09.199Z,2.07
2023-01-10T05:46:35.549Z,2.30
2023-01-10T05:49:01.930Z,1.97
2023-01-10T05:51:28.279Z,2.07
2023-01-10T05:53:54.653Z,2.00
2023-01-10T05:56:20.999Z,2.00
2023-01-10T05:58:51.380Z,2.00
2023-01-10T06:01:13.798Z,2.10
2023-01-10T06:03:40.122Z,2.10
2023-01-10T06:06:06.470Z,2.10
2023-01-10T06:08:32.873Z,2.50
2023-01-10T06:11:00.341Z,2.27
2023-01-10T06:13:25.601Z,2.50
2023-01-10T06:15:52.008Z,2.00
2023-01-10T06:18:18.335Z,2.00
2023-01-10T06:20:44.715Z,2.07
2023-01-10T06:23:11.170Z,2.27
2023-01-10T06:25:37.516Z,2.33
2023-01-10T06:28:03.942Z,2.07
2023-01-10T06:30:30.264Z,2.10
2023-01-10T06:32:56.638Z,2.13
2023-01-10T06:35:22.987Z,2.13
2023-01-10T06:37:49.369Z,2.10
2023-01-10T06:40:15.759Z,2.20
2023-01-10T06:42:42.718Z,2.50
2023-01-10T06:45:09.071Z,2.27
2023-01-10T06:47:35.567Z,2.43
2023-01-10T06:50:01.974Z,2.23
2023-01-10T06:52:28.357Z,2.33
2023-01-10T06:54:54.703Z,2.30
2023-01-10T06:57:21.098Z,2.50
2023-01-10T06:59:47.445Z,2.40
2023-01-10T07:02:14.947Z,2.50
2023-01-10T07:04:41.232Z,2.40
2023-01-10T07:07:07.623Z,2.43
2023-01-10T07:09:33.960Z,2.77
2023-01-10T07:12:00.352Z,2.20
2023-01-10T07:14:26.694Z,2.47
2023-01-10T07:16:53.129Z,2.00
2023-01-10T07:19:19.468Z,2.40
2023-01-10T07:21:45.866Z,2.47
2023-01-10T07:24:12.222Z,2.27
2023-01-10T07:26:38.611Z,2.53
2023-01-10T07:29:04.965Z,2.70
2023-01-10T07:31:31.369Z,2.23
2023-01-10T07:33:57.700Z,2.20
2023-01-10T07:36:24.082Z,2.00
2023-01-10T07:38:50.430Z,2.30
2023-01-10T07:41:16.824Z,2.33
2023-01-10T07:43:43.188Z,2.70
2023-01-10T07:46:09.763Z,2.30
2023-01-10T07:48:35.974Z,2.13
2023-01-10T07:51:02.351Z,2.27
2023-01-10T07:53:28.696Z,2.00
2023-01-10T07:55:55.079Z,1.90
2023-01-10T07:58:21.429Z,1.90
2023-01-10T08:00:47.855Z,2.60
2023-01-10T08:03:14.325Z,2.20
2023-01-10T08:05:40.573Z,2.77
2023-01-10T08:08:06.997Z,2.20
2023-01-10T08:10:33.351Z,3.53
2023-01-10T08:13:13.246Z,2.13
2023-01-10T08:15:26.145Z,2.33
2023-01-10T08:17:52.515Z,2.30
2023-01-10T08:20:18.886Z,2.00
2023-01-10T08:22:45.264Z,2.10
2023-01-10T08:25:11.634Z,2.20
2023-01-10T08:27:38.043Z,2.37
2023-01-10T08:30:04.384Z,2.00
2023-01-10T08:32:30.804Z,2.20
2023-01-10T08:34:57.146Z,2.23
2023-01-10T08:37:23.543Z,2.20
2023-01-10T08:39:49.878Z,2.23
2023-01-10T08:42:16.280Z,2.03
2023-01-10T08:44:42.667Z,2.37
2023-01-10T08:47:09.047Z,2.40
2023-01-10T08:49:35.411Z,4.00
2023-01-10T08:52:01.812Z,2.70
2023-01-10T08:54:28.182Z,2.10
2023-01-10T08:56:54.579Z,2.40
2023-01-10T08:59:21.054Z,2.50
2023-01-10T09:01:47.542Z,2.70
2023-01-10T09:04:13.837Z,2.37
2023-01-10T09:06:40.227Z,2.40
2023-01-10T09:09:06.570Z,2.43
2023-01-10T09:11:32.969Z,2.40
2023-01-10T09:13:59.425Z,2.53
2023-01-10T09:16:25.899Z,2.13
2023-01-10T09:18:52.280Z,2.13
2023-01-10T09:21:18.685Z,2.53
2023-01-10T09:23:45.018Z,2.50
2023-01-10T09:26:11.421Z,2.30
2023-01-10T09:28:37.759Z,2.50
2023-01-10T09:31:04.200Z,2.47
2023-01-10T09:33:45.220Z,2.23
2023-01-10T09:35:56.885Z,2.43
2023-01-10T09:38:23.249Z,2.50
2023-01-10T09:40:49.623Z,2.57
2023-01-10T09:43:15.974Z,2.33
2023-01-10T09:45:42.373Z,2.20
2023-01-10T09:48:08.732Z,2.70
2023-01-10T09:50:35.138Z,2.50
2023-01-10T09:53:01.487Z,2.33
2023-01-10T09:55:27.909Z,2.43
2023-01-10T09:57:54.237Z,2.70
2023-01-10T10:00:20.668Z,2.63
2023-01-10T10:02:49.033Z,2.77
2023-01-10T10:05:13.448Z,3.27
2023-01-10T10:07:39.795Z,2.40
2023-01-10T10:10:06.212Z,2.27
2023-01-10T10:12:32.584Z,2.40
2023-01-10T10:14:59.028Z,2.60
2023-01-10T10:17:25.385Z,2.90
2023-01-10T10:19:51.791Z,2.80
2023-01-10T10:22:19.895Z,2.50
2023-01-10T10:24:44.518Z,2.43
2023-01-10T10:27:10.869Z,2.90
2023-01-10T10:29:37.296Z,2.80
2023-01-10T10:32:03.637Z,2.70
2023-01-10T10:34:30.035Z,2.53
2023-01-10T10:36:56.394Z,2.67
2023-01-10T10:39:22.792Z,2.30
2023-01-10T10:41:49.209Z,2.60
2023-01-10T10:44:15.588Z,2.80
2023-01-10T10:46:41.945Z,2.60
2023-01-10T10:49:08.318Z,2.87
2023-01-10T10:51:34.794Z,2.73
2023-01-10T10:54:01.118Z,2.80
2023-01-10T10:56:27.470Z,3.07
2023-01-10T10:58:53.848Z,2.80
2023-01-10T11:01:20.296Z,2.57
2023-01-10T11:03:46.579Z,2.60
2023-01-10T11:06:12.924Z,2.57
2023-01-10T11:08:39.308Z,2.90
2023-01-10T11:11:05.706Z,2.60
2023-01-10T11:13:32.102Z,2.80
2023-01-10T11:15:58.514Z,2.90
2023-01-10T11:18:24.834Z,3.07
2023-01-10T11:20:51.202Z,3.00
2023-01-10T11:23:17.600Z,2.67
2023-01-10T11:25:43.943Z,2.87
2023-01-10T11:28:11.156Z,2.60
2023-01-10T11:30:36.711Z,2.67
2023-01-10T11:33:03.115Z,3.00
2023-01-10T11:35:29.427Z,2.70
2023-01-10T11:37:55.822Z,3.13
2023-01-10T11:40:22.178Z,2.77
2023-01-10T11:42:48.557Z,2.40
2023-01-10T11:45:15.019Z,2.50
2023-01-10T11:47:45.319Z,2.70
2023-01-10T11:50:07.737Z,2.63
2023-01-10T11:52:34.182Z,2.83
2023-01-10T11:55:00.636Z,2.60
2023-01-10T11:57:27.023Z,2.77
2023-01-10T11:59:53.367Z,2.80
2023-01-10T12:02:19.792Z,2.70
2023-01-10T12:04:46.101Z,2.60
2023-01-10T12:07:12.511Z,2.77
2023-01-10T12:09:38.843Z,2.40
2023-01-10T12:12:05.243Z,2.30
2023-01-10T12:14:31.589Z,3.10
2023-01-10T12:17:00.519Z,2.50
2023-01-10T12:19:26.772Z,2.40
2023-01-10T12:21:53.189Z,2.50
2023-01-10T12:24:19.534Z,3.03
2023-01-10T12:26:45.928Z,2.60
2023-01-10T12:29:12.286Z,4.70
2023-01-10T12:31:38.656Z,2.43
2023-01-10T12:34:05.016Z,2.80
2023-01-10T12:36:31.408Z,2.40
2023-01-10T12:38:57.756Z,2.70
2023-01-10T12:41:24.152Z,2.40
2023-01-10T12:43:50.499Z,2.70
2023-01-10T12:46:31.713Z,2.60
2023-01-10T12:48:43.263Z,2.70
2023-01-10T12:51:09.672Z,2.80
2023-01-10T12:53:36.031Z,2.20
2023-01-10T12:56:02.435Z,2.43
2023-01-10T12:58:28.793Z,2.77
2023-01-10T13:00:55.215Z,2.40
2023-01-10T13:03:21.553Z,2.50
2023-01-10T13:05:47.956Z,2.67
2023-01-10T13:08:14.307Z,2.43
2023-01-10T13:10:40.691Z,2.80
2023-01-10T13:13:07.045Z,2.70
2023-01-10T13:15:33.519Z,2.33
2023-01-10T13:17:59.797Z,2.53
2023-01-10T13:20:26.187Z,2.50
2023-01-10T13:22:52.516Z,2.43
2023-01-10T13:25:18.906Z,2.40
2023-01-10T13:27:45.242Z,2.17
2023-01-10T13:30:11.624Z,2.23
2023-01-10T13:32:40.162Z,2.47
2023-01-10T13:35:06.551Z,2.90
2023-01-10T13:37:32.903Z,2.37
2023-01-10T13:39:59.331Z,2.50
2023-01-10T13:42:25.670Z,2.40
2023-01-10T13:44:52.068Z,2.50
2023-01-10T13:47:18.454Z,2.20
2023-01-10T13:49:44.838Z,2.57
2023-01-10T13:52:11.180Z,2.33
2023-01-10T13:54:37.577Z,2.20
2023-01-10T13:57:03.925Z,2.40
2023-01-10T13:59:30.344Z,2.30
2023-01-10T14:01:56.823Z,2.17
2023-01-10T14:04:23.129Z,2.33
2023-01-10T14:06:49.453Z,2.30
2023-01-10T14:09:15.849Z,2.33
2023-01-10T14:11:42.233Z,2.83
2023-01-10T14:14:08.614Z,2.47
2023-01-10T14:16:34.953Z,2.33
2023-01-10T14:19:01.348Z,2.13
2023-01-10T14:21:27.684Z,2.40
2023-01-10T14:23:54.140Z,2.37
2023-01-10T14:26:20.507Z,2.17
2023-01-10T14:28:46.892Z,2.50
2023-01-10T14:31:13.293Z,2.57
2023-01-10T14:33:39.634Z,2.00
2023-01-10T14:36:05.986Z,1.87
2023-01-10T14:38:32.374Z,2.30
2023-01-10T14:40:58.723Z,2.10
2023-01-10T14:43:25.196Z,2.10
2023-01-10T14:45:51.524Z,2.00
2023-01-10T14:48:17.926Z,2.10
2023-01-10T14:50:44.260Z,2.43
2023-01-10T14:53:10.671Z,1.87
2023-01-10T14:55:37.059Z,1.90
2023-01-10T14:58:03.439Z,2.20
2023-01-10T15:00:29.819Z,2.00
2023-01-10T15:02:56.185Z,2.20
2023-01-10T15:05:22.531Z,2.00
2023-01-10T15:07:50.639Z,2.17
2023-01-10T15:10:15.259Z,2.03
2023-01-10T15:12:41.664Z,2.03
2023-01-10T15:15:08.041Z,1.90
2023-01-10T15:17:34.408Z,1.87
2023-01-10T15:20:00.756Z,2.03
2023-01-10T15:22:27.145Z,1.63
2023-01-10T15:24:53.531Z,1.80
2023-01-10T15:27:19.915Z,1.80
2023-01-10T15:29:46.269Z,1.70
2023-01-10T15:32:12.845Z,1.83
2023-01-10T15:34:39.180Z,1.70
2023-01-10T15:37:05.567Z,1.80
2023-01-10T15:39:31.944Z,2.10
2023-01-10T15:41:58.350Z,1.80
2023-01-10T15:44:25.759Z,1.80
2023-01-10T15:46:51.188Z,1.60
2023-01-10T15:49:17.434Z,1.40
2023-01-10T15:51:43.851Z,1.63
2023-01-10T15:54:10.190Z,1.60
2023-01-10T15:56:36.589Z,1.57
2023-01-10T15:59:03.192Z,1.80
2023-01-10T16:01:29.675Z,1.60
2023-01-10T16:03:55.884Z,1.67
2023-01-10T16:06:22.279Z,1.60
2023-01-10T16:08:48.619Z,1.50
2023-01-10T16:11:15.051Z,1.50
2023-01-10T16:13:41.413Z,1.40
2023-01-10T16:16:07.869Z,1.50
2023-01-10T16:18:34.204Z,1.33
2023-01-10T16:21:00.622Z,1.50
2023-01-10T16:23:26.998Z,1.47
2023-01-10T16:25:53.403Z,1.33
2023-01-10T16:28:19.723Z,1.47
2023-01-10T16:30:46.119Z,1.33
2023-01-10T16:33:12.520Z,1.43
2023-01-10T16:35:38.900Z,1.60
2023-01-10T16:38:05.259Z,1.47
2023-01-10T16:40:31.639Z,1.30
2023-01-10T16:42:57.981Z,1.40
2023-01-10T16:45:24.473Z,1.30
2023-01-10T16:47:50.709Z,1.10
2023-01-10T16:50:17.094Z,1.20
2023-01-10T16:52:43.437Z,1.50
2023-01-10T16:55:09.834Z,1.30
2023-01-10T16:57:36.249Z,1.40
2023-01-10T17:00:02.666Z,1.40
2023-01-10T17:02:29.012Z,1.07
2023-01-10T17:04:55.398Z,1.13
2023-01-10T17:07:21.758Z,1.10
2023-01-10T17:09:49.404Z,1.20
2023-01-10T17:12:14.508Z,1.20
2023-01-10T17:14:40.947Z,1.10
2023-01-10T17:17:07.302Z,1.10
2023-01-10T17:19:33.688Z,1.20
2023-01-10T17:22:00.031Z,1.00
2023-01-10T17:24:26.428Z,1.20
2023-01-10T17:26:52.784Z,1.13
2023-01-10T17:29:19.164Z,1.10
2023-01-10T17:31:45.534Z,1.20
2023-01-10T17:34:11.906Z,1.10
2023-01-10T17:36:38.229Z,1.00
2023-01-10T17:39:04.662Z,1.10
2023-01-10T17:41:30.993Z,1.20
2023-01-10T17:43:57.384Z,1.20
2023-01-10T17:46:23.753Z,1.00
2023-01-10T17:48:50.123Z,1.10
2023-01-10T17:51:16.465Z,1.10
2023-01-10T17:53:42.851Z,1.20
2023-01-10T17:56:09.206Z,1.10
2023-01-10T17:58:35.598Z,1.10
2023-01-10T18:01:02.069Z,1.27
2023-01-10T18:03:28.336Z,1.20
2023-01-10T18:05:54.714Z,1.00
2023-01-10T18:08:21.088Z,1.23
2023-01-10T18:10:47.432Z,1.20
2023-01-10T18:13:13.811Z,0.90
2023-01-10T18:15:40.206Z,1.10
2023-01-10T18:18:06.590Z,1.20
2023-01-10T18:20:32.934Z,1.10
2023-01-10T18:22:59.320Z,1.00
2023-01-10T18:25:25.706Z,1.03
2023-01-10T18:27:52.011Z,1.10
2023-01-10T18:30:18.415Z,1.00
2023-01-10T18:32:44.796Z,1.27
2023-01-10T18:35:11.193Z,0.90
2023-01-10T18:37:37.542Z,1.00
2023-01-10T18:40:03.947Z,1.07
2023-01-10T18:42:30.284Z,1.10
2023-01-10T18:44:56.674Z,0.90
2023-01-10T18:47:23.020Z,0.97
2023-01-10T18:49:49.518Z,0.90
2023-01-10T18:52:15.760Z,1.10
2023-01-10T18:54:42.149Z,0.93
2023-01-10T18:57:08.497Z,1.10
2023-01-10T18:59:34.883Z,0.90
2023-01-10T19:02:01.233Z,0.80
2023-01-10T19:04:27.620Z,0.90
2023-01-10T19:06:56.663Z,1.10
2023-01-10T19:09:20.348Z,0.90
2023-01-10T19:11:46.684Z,1.10
2023-01-10T19:14:13.078Z,1.00
2023-01-10T19:16:39.432Z,0.90
2023-01-10T19:19:05.871Z,1.00
2023-01-10T19:21:32.211Z,0.90
2023-01-10T19:23:58.597Z,1.00
2023-01-10T19:26:24.947Z,0.90
2023-01-10T19:28:51.336Z,0.90
2023-01-10T19:31:17.725Z,0.93
2023-01-10T19:33:44.078Z,0.90
2023-01-10T19:36:10.418Z,0.90
2023-01-10T19:38:36.820Z,0.90
2023-01-10T19:41:03.161Z,0.90
2023-01-10T19:43:29.600Z,0.90
2023-01-10T19:45:56.066Z,0.90
2023-01-10T19:48:22.357Z,0.80
2023-01-10T19:50:51.175Z,0.90
2023-01-10T19:53:17.566Z,1.00
2023-01-10T19:55:45.365Z,0.90
2023-01-10T19:58:10.643Z,1.00
2023-01-10T20:00:36.987Z,0.80
2023-01-10T20:03:03.440Z,0.90
2023-01-10T20:05:29.761Z,1.00
2023-01-10T20:07:56.119Z,1.10
2023-01-10T20:10:24.927Z,0.90
2023-01-10T20:12:51.312Z,1.00
2023-01-10T20:15:17.670Z,0.83
2023-01-10T20:17:44.041Z,0.90
2023-01-10T20:20:10.384Z,1.00
2023-01-10T20:22:36.766Z,0.80
2023-01-10T20:25:03.115Z,0.90
2023-01-10T20:27:29.536Z,0.97
2023-01-10T20:29:55.873Z,0.80
2023-01-10T20:32:22.360Z,1.00
2023-01-10T20:34:48.708Z,1.00
2023-01-10T20:37:15.091Z,0.90
2023-01-10T20:39:41.433Z,0.90
2023-01-10T20:42:07.826Z,1.07
2023-01-10T20:44:34.176Z,0.90
2023-01-10T20:47:00.556Z,0.90
2023-01-10T20:49:26.938Z,0.90
2023-01-10T20:51:53.319Z,0.90
2023-01-10T20:54:19.689Z,0.90
2023-01-10T20:56:46.086Z,1.00
2023-01-10T20:59:12.413Z,0.80
2023-01-10T21:01:38.852Z,0.80
2023-01-10T21:04:05.179Z,1.00
2023-01-10T21:06:31.602Z,0.80
2023-01-10T21:08:57.898Z,1.00
2023-01-10T21:11:24.285Z,0.90
2023-01-10T21:13:50.629Z,0.90
2023-01-10T21:16:17.049Z,0.90
2023-01-10T21:18:43.354Z,1.00
2023-01-10T21:21:09.738Z,0.90
2023-01-10T21:23:36.107Z,1.00
2023-01-10T21:26:02.499Z,1.00
2023-01-10T21:28:28.837Z,0.90
2023-01-10T21:30:55.222Z,0.90
2023-01-10T21:33:21.564Z,0.80
2023-01-10T21:35:47.947Z,0.97
2023-01-10T21:38:14.342Z,1.00
2023-01-10T21:40:40.732Z,0.90
2023-01-10T21:43:07.073Z,1.00
2023-01-10T21:45:33.456Z,1.00
2023-01-10T21:47:59.815Z,0.90
2023-01-10T21:50:26.189Z,0.97
2023-01-10T21:52:52.535Z,0.80
2023-01-10T21:55:18.920Z,0.90
2023-01-10T21:57:46.950Z,0.87
2023-01-10T22:00:11.692Z,0.90
2023-01-10T22:02:38.029Z,0.90
2023-01-10T22:05:04.452Z,0.80
2023-01-10T22:07:30.799Z,0.80
2023-01-10T22:09:57.169Z,1.00
2023-01-10T22:12:23.517Z,1.00
2023-01-10T22:14:49.904Z,0.90
2023-01-10T22:17:16.253Z,0.80
2023-01-10T22:19:42.633Z,1.00
2023-01-10T22:22:08.978Z,0.90
2023-01-10T22:24:35.367Z,0.80
2023-01-10T22:27:01.751Z,0.90
2023-01-10T22:29:28.121Z,0.90
2023-01-10T22:31:54.578Z,0.90
2023-01-10T22:34:20.889Z,0.80
2023-01-10T22:36:47.265Z,0.90
2023-01-10T22:39:13.651Z,0.90
2023-01-10T22:41:39.989Z,0.90
2023-01-10T22:44:06.378Z,0.90
2023-01-10T22:46:32.746Z,0.80
2023-01-10T22:48:59.131Z,0.90
2023-01-10T22:51:25.463Z,0.90
2023-01-10T22:53:51.855Z,0.90
2023-01-10T22:56:18.186Z,0.90
2023-01-10T22:58:44.614Z,0.90
2023-01-10T23:01:10.947Z,1.00
2023-01-10T23:03:37.318Z,0.90
2023-01-10T23:06:03.641Z,0.90
2023-01-10T23:08:31.224Z,0.90
2023-01-10T23:10:56.355Z,0.90
2023-01-10T23:13:22.716Z,0.80
2023-01-10T23:15:49.065Z,0.90
2023-01-10T23:18:15.414Z,0.90
2023-01-10T23:20:41.762Z,0.90
2023-01-10T23:23:08.117Z,0.90
2023-01-10T23:25:34.459Z,0.87
2023-01-10T23:28:00.815Z,0.90
2023-01-10T23:30:27.152Z,1.00
2023-01-10T23:32:53.499Z,0.90
2023-01-10T23:35:19.841Z,0.90
2023-01-10T23:37:49.290Z,0.87
2023-01-10T23:40:15.662Z,0.90
2023-01-10T23:42:42.012Z,0.90
2023-01-10T23:45:08.357Z,0.80
2023-01-10T23:47:34.707Z,0.90
2023-01-10T23:50:01.085Z,0.90
2023-01-10T23:52:27.422Z,1.00
2023-01-10T23:54:53.769Z,0.90
2023-01-10T23:57:20.123Z,0.80
2023-01-10T23:59:46.467Z,0.90
